EW1607 Weather Reports


time (UTC)temp
C
wind
direction
speed
KPH
gust
KPH
rain 1hr
cm
rain 24hr
cm
rain mn
cm
humidity
%
barometer
mb
20260503193958 16 215 6.4 19.3 0.00 0.00 0.00 40 1011.0
20260503193500 17 214 8.0 17.7 0.00 0.00 0.00 40 1011.2
20260503192958 17 210 4.8 16.1 0.00 0.00 0.00 39 1011.1
20260503192453 17 195 4.8 16.1 0.00 0.00 0.00 39 1011.1
20260503191956 17 266 4.8 17.7 0.00 0.00 0.00 39 1011.3
20260503191437 17 200 6.4 17.7 0.00 0.00 0.00 40 1011.4
20260503190934 17 229 6.4 12.9 0.00 0.00 0.00 39 1011.4
20260503190438 17 141 6.4 19.3 0.00 0.00 0.00 38 1011.5
20260503185929 17 150 8.0 19.3 0.00 0.00 0.00 38 1011.5
20260503185709 17 213 6.4 16.1 0.00 0.00 0.00 37 1011.5
20260503184929 17 205 6.4 19.3 0.00 0.00 0.00 37 1011.6
20260503184357 17 216 8.0 19.3 0.00 0.00 0.00 38 1011.7
20260503184118 17 175 6.4 17.7 0.00 0.00 0.00 38 1011.8
20260503183329 17 219 4.8 19.3 0.00 0.00 0.00 39 1011.9
20260503182827 17 51 6.4 19.3 0.00 0.00 0.00 39 1011.8
20260503182324 17 191 6.4 17.7 0.00 0.00 0.00 38 1011.9
20260503181819 16 199 4.8 11.3 0.00 0.00 0.00 39 1011.9
20260503181319 16 132 4.8 17.7 0.00 0.00 0.00 39 1012.0
20260503181054 16 262 4.8 17.7 0.00 0.00 0.00 40 1007.0
20260503180338 16 233 6.4 20.9 0.00 0.00 0.00 39 1012.2
20260503180330 16 231 4.8 20.9 0.00 0.00 0.00 39 1012.1
20260503175308 16 208 6.4 16.1 0.00 0.00 0.00 42 1012.2
20260503174754 16 223 6.4 16.1 0.00 0.00 0.00 41 1012.2
20260503174256 16 210 6.4 14.5 0.00 0.00 0.00 41 1012.3
20260503174020 16 206 4.8 14.5 0.00 0.00 0.00 42 1012.3
20260503173248 16 197 3.2 9.7 0.00 0.00 0.00 43 1012.5
20260503172743 15 198 4.8 12.9 0.00 0.00 0.00 43 1012.4
20260503172242 15 217 6.4 12.9 0.00 0.00 0.00 43 1012.6
20260503171740 15 293 6.4 12.9 0.00 0.00 0.00 43 1012.7
20260503171229 15 215 6.4 16.1 0.00 0.00 0.00 43 1012.8
20260503170727 15 243 6.4 16.1 0.00 0.00 0.00 44 1012.9
20260503170216 15 225 6.4 14.5 0.00 0.00 0.00 45 1013.0
20260503160149 13 193 3.2 14.5 0.00 0.00 0.00 46 1013.7
20260503150509 15 200 3.2 11.3 0.00 0.00 0.00 41 1013.9
20260503150252 15 86 3.2 9.7 0.00 0.00 0.00 44 1014.1
20260503131317 10 344 1.6 9.7 0.00 0.00 0.00 53 1014.0
20260503130745 10 247 3.2 8.0 0.00 0.00 0.00 57 1014.0
20260503130239 9 217 1.6 8.0 0.00 0.00 0.00 57 1013.9
20260503110454 2 205 0.0 3.2 0.00 0.00 0.00 75 1013.2
20260503100251 1 195 0.0 3.2 0.00 0.00 0.00 79 1013.3
20260503090510 0 205 0.0 1.6 0.00 0.00 0.00 90 1013.7
20260503090226 0 206 0.0 0.0 0.00 0.00 0.00 90 1013.7
20260503081216 0 206 0.0 0.0 0.00 0.00 0.00 88 1014.0
20260503080649 0 206 0.0 0.0 0.00 0.00 0.00 88 1013.9
20260503080418 0 206 0.0 0.0 0.00 0.00 0.00 88 1013.9
20260503072932 0 206 0.0 0.0 0.00 0.00 0.00 89 1014.0
20260503072357 0 206 0.0 0.0 0.00 0.00 0.00 89 1014.1
20260503071848 0 206 0.0 0.0 0.00 0.00 0.00 89 1014.1
20260503071347 0 206 0.0 0.0 0.00 0.00 0.00 89 1014.2
20260503070830 0 206 0.0 0.0 0.00 0.00 0.00 89 1014.2
20260503070329 0 206 0.0 0.0 0.00 0.00 0.00 89 1014.2
20260503055010 0 206 0.0 0.0 0.00 0.00 0.00 88 1014.6
20260503054453 0 206 0.0 0.0 0.00 0.00 0.00 88 1014.7
20260503053948 0 206 0.0 0.0 0.00 0.00 0.00 88 1014.8
20260503053441 0 206 0.0 0.0 0.00 0.00 0.00 88 1014.7
20260503052838 0 206 0.0 0.0 0.00 0.00 0.00 88 1014.8
20260503052323 0 206 0.0 0.0 0.00 0.00 0.00 88 1014.8
20260503051757 0 206 0.0 0.0 0.00 0.00 0.00 88 1014.9
20260503051232 0 206 0.0 0.0 0.00 0.00 0.00 88 1014.8
20260503050715 0 206 0.0 0.0 0.00 0.00 0.00 88 1011.3
20260503050215 0 206 0.0 0.0 0.00 0.00 0.00 88 1014.9
20260503045944 0 206 0.0 0.0 0.00 0.00 0.00 89 1015.0
20260503045422 0 206 0.0 0.0 0.00 0.00 0.00 88 1015.0
20260503044639 0 206 0.0 0.0 0.00 0.00 0.00 89 1014.9
20260503044350 0 206 0.0 0.0 0.00 0.00 0.00 89 1014.9
20260503043622 0 206 0.0 0.0 0.00 0.00 0.00 89 1014.9
20260503043108 0 206 0.0 0.0 0.00 0.00 0.00 89 1014.9
20260503042538 0 206 0.0 0.0 0.00 0.00 0.00 89 1015.0
20260503042015 0 206 0.0 0.0 0.00 0.00 0.00 88 1014.9
20260503041446 0 206 0.0 0.0 0.00 0.00 0.00 87 1015.0
20260503040930 0 206 0.0 0.0 0.00 0.00 0.00 87 1015.0
20260503040428 0 206 0.0 0.0 0.00 0.00 0.00 87 1015.1
20260503040149 0 206 0.0 0.0 0.00 0.00 0.00 88 1015.1
20260503035649 0 206 0.0 0.0 0.00 0.00 0.00 87 1015.1
20260503034915 0 206 0.0 0.0 0.00 0.00 0.00 87 1015.2
20260503034634 0 206 0.0 0.0 0.00 0.00 0.00 87 1015.2
20260503033832 0 206 0.0 0.0 0.00 0.00 0.00 87 1015.2
20260503033310 0 206 0.0 0.0 0.00 0.00 0.00 86 1015.3
20260503032802 0 206 0.0 0.0 0.00 0.00 0.00 86 1015.3
20260503032229 0 206 0.0 0.0 0.00 0.00 0.00 86 1015.3
20260503031727 0 206 0.0 0.0 0.00 0.00 0.00 85 1015.3
20260503031215 1 206 0.0 0.0 0.00 0.00 0.00 85 1015.4
20260503030701 1 206 0.0 0.0 0.00 0.00 0.00 84 1015.5
20260503030154 1 206 0.0 0.0 0.00 0.00 0.00 84 1015.5
20260503025642 1 206 0.0 0.0 0.00 0.00 0.00 83 1015.6
20260503025132 1 206 0.0 0.0 0.00 0.00 0.00 82 1015.5
20260503024524 1 206 0.0 0.0 0.00 0.00 0.00 82 1015.5
20260503024239 1 206 0.0 0.0 0.00 0.00 0.00 81 1015.5
20260503023718 1 206 0.0 0.0 0.00 0.00 0.00 81 1015.6
20260503022952 1 206 0.0 0.0 0.00 0.00 0.00 80 1015.6
20260503022439 2 206 0.0 0.0 0.00 0.00 0.00 80 1015.6
20260503021934 2 206 0.0 0.0 0.00 0.00 0.00 80 1015.7
20260503021434 2 206 0.0 0.0 0.00 0.00 0.00 79 1015.7
20260503020918 2 206 0.0 0.0 0.00 0.00 0.00 79 1015.7
20260503020630 2 206 0.0 0.0 0.00 0.00 0.00 77 1015.6
20260503015856 2 206 0.0 0.0 0.00 0.00 0.00 76 1015.6
20260503015850 2 206 0.0 0.0 0.00 0.00 0.00 75 1015.5
20260503014822 3 206 0.0 0.0 0.00 0.00 0.00 74 1015.6
20260503014315 3 206 0.0 0.0 0.00 0.00 0.00 73 1015.6
20260503014301 3 206 0.0 0.0 0.00 0.00 0.00 73 1015.6
20260503013220 3 206 0.0 0.0 0.00 0.00 0.00 71 1015.5
20260503012701 3 206 0.0 0.0 0.00 0.00 0.00 71 1015.6
20260503012149 4 206 0.0 0.0 0.00 0.00 0.00 67 1015.5
20260503011621 4 206 0.0 0.0 0.00 0.00 0.00 66 1015.6
20260503011118 4 206 0.0 0.0 0.00 0.00 0.00 67 1015.6
20260503010601 5 206 0.0 0.0 0.00 0.00 0.00 67 1015.6
20260503010049 5 206 0.0 0.0 0.00 0.00 0.00 65 1015.6
20260503005521 5 206 0.0 0.0 0.00 0.00 0.00 62 1015.6
20260503005027 5 206 0.0 0.0 0.00 0.00 0.00 62 1015.5
20260503004516 6 206 0.0 0.0 0.00 0.00 0.00 60 1015.5
20260503004029 6 206 0.0 0.0 0.00 0.00 0.00 58 1015.7
20260503003434 6 206 0.0 0.0 0.00 0.00 0.00 56 1015.6
20260503002838 6 206 0.0 0.0 0.00 0.00 0.00 55 1015.6
20260503002324 7 206 0.0 0.0 0.00 0.00 0.00 54 1015.6
20260503002031 7 206 0.0 1.6 0.00 0.00 0.00 53 1015.6
20260503001244 7 226 0.0 1.6 0.00 0.00 0.00 53 1015.6
20260503000711 7 79 0.0 0.0 0.00 0.00 0.00 52 1011.4
20260503000211 7 78 0.0 1.6 0.00 0.00 0.00 52 1015.6
20260502235947 7 79 0.0 1.6 0.00 0.00 0.00 51 1015.7
20260502235208 8 204 0.0 3.2 0.00 0.00 0.00 51 1011.4
20260502234659 8 205 0.0 3.2 0.00 0.00 0.00 51 1015.7
20260502234153 8 66 0.0 8.0 0.00 0.00 0.00 50 1015.7
20260502233644 8 71 1.6 8.0 0.00 0.00 0.00 49 1015.7
20260502233117 8 58 0.0 6.4 0.00 0.00 0.00 49 1015.8
20260502232604 8 91 0.0 6.4 0.00 0.00 0.00 51 1015.8
20260502232556 8 101 0.0 4.8 0.00 0.00 0.00 49 1015.9
20260502231540 8 102 1.6 9.7 0.00 0.00 0.00 49 1015.9
20260502231008 8 101 1.6 14.5 0.00 0.00 0.00 48 1015.8
20260502230521 8 108 1.6 8.0 0.00 0.00 0.00 48 1015.8
20260502230514 8 82 0.0 4.8 0.00 0.00 0.00 48 1016.0
20260502225452 8 53 1.6 8.0 0.00 0.00 0.00 49 1015.8
20260502224953 8 118 0.0 6.4 0.00 0.00 0.00 49 1015.9
20260502224443 8 107 1.6 6.4 0.00 0.00 0.00 48 1015.8
20260502223943 8 88 1.6 3.2 0.00 0.00 0.00 48 1015.9
20260502223418 8 78 0.0 3.2 0.00 0.00 0.00 50 1016.0
20260502222913 8 76 0.0 1.6 0.00 0.00 0.00 49 1015.9
20260502222355 8 124 0.0 4.8 0.00 0.00 0.00 48 1016.0
20260502221829 8 87 1.6 8.0 0.00 0.00 0.00 47 1015.9
20260502221318 8 198 1.6 11.3 0.00 0.00 0.00 46 1015.9
20260502220817 8 90 1.6 11.3 0.00 0.00 0.00 48 1015.9
20260502220314 8 257 1.6 6.4 0.00 0.00 0.00 47 1015.9
20260502220035 8 96 1.6 6.4 0.00 0.00 0.00 49 1015.9
20260502215528 8 100 1.6 9.7 0.00 0.00 0.00 49 1015.9
20260502214734 8 205 0.0 9.7 0.00 0.00 0.00 48 1016.0
20260502214232 8 216 0.0 6.4 0.00 0.00 0.00 47 1016.0
20260502213728 8 108 1.6 6.4 0.00 0.00 0.00 48 1016.1
20260502213211 8 78 1.6 6.4 0.00 0.00 0.00 48 1016.1
20260502212948 8 70 0.0 4.8 0.00 0.00 0.00 47 1015.9
20260502212209 8 217 1.6 4.8 0.00 0.00 0.00 46 1016.0
20260502211654 8 56 1.6 6.4 0.00 0.00 0.00 47 1016.1
20260502211152 8 97 1.6 6.4 0.00 0.00 0.00 46 1016.1
20260502210651 8 227 0.0 4.8 0.00 0.00 0.00 45 1011.7
20260502210152 8 96 0.0 6.4 0.00 0.00 0.00 46 1016.2
20260502205651 8 78 0.0 8.0 0.00 0.00 0.00 48 1016.2
20260502205146 8 199 1.6 8.0 0.00 0.00 0.00 48 1016.2
20260502204912 8 113 1.6 6.4 0.00 0.00 0.00 47 1016.2
20260502204404 8 252 1.6 11.3 0.00 0.00 0.00 46 1016.3
20260502203621 8 78 1.6 11.3 0.00 0.00 0.00 46 1016.3
20260502203344 8 143 1.6 6.4 0.00 0.00 0.00 47 1016.3
20260502202613 8 98 1.6 14.5 0.00 0.00 0.00 48 1016.3
20260502202110 8 111 1.6 14.5 0.00 0.00 0.00 47 1012.0
20260502201607 8 65 1.6 9.7 0.00 0.00 0.00 47 1016.4
20260502201103 8 242 1.6 9.7 0.00 0.00 0.00 46 1016.4
20260502200553 8 226 1.6 9.7 0.00 0.00 0.00 45 1016.6
20260502200039 8 143 1.6 9.7 0.00 0.00 0.00 48 1016.6
20260502195802 8 93 1.6 8.0 0.00 0.00 0.00 47 1016.5
20260502195037 8 266 1.6 9.7 0.00 0.00 0.00 47 1016.7
20260502194532 8 154 1.6 9.7 0.00 0.00 0.00 45 1016.7